sensor_id;sensor_type;location;lat;lon;timestamp;temperature;humidity
84807;DHT22;75042;43.504;3.714;2024-01-25T00:01:06;10.20;87.20
84807;DHT22;75042;43.504;3.714;2024-01-25T00:03:32;10.10;87.60
84807;DHT22;75042;43.504;3.714;2024-01-25T00:05:57;10.20;87.70
84807;DHT22;75042;43.504;3.714;2024-01-25T00:08:23;10.10;87.60
84807;DHT22;75042;43.504;3.714;2024-01-25T00:10:48;10.10;87.80
84807;DHT22;75042;43.504;3.714;2024-01-25T00:13:14;10.00;87.60
84807;DHT22;75042;43.504;3.714;2024-01-25T00:15:40;10.00;87.90
84807;DHT22;75042;43.504;3.714;2024-01-25T00:18:05;9.90;87.60
84807;DHT22;75042;43.504;3.714;2024-01-25T00:20:31;9.90;88.10
84807;DHT22;75042;43.504;3.714;2024-01-25T00:22:57;9.90;88.10
84807;DHT22;75042;43.504;3.714;2024-01-25T00:25:22;9.80;88.00
84807;DHT22;75042;43.504;3.714;2024-01-25T00:27:48;9.60;88.90
84807;DHT22;75042;43.504;3.714;2024-01-25T00:30:14;9.50;89.20
84807;DHT22;75042;43.504;3.714;2024-01-25T00:32:39;9.50;89.00
84807;DHT22;75042;43.504;3.714;2024-01-25T00:35:05;9.50;89.70
84807;DHT22;75042;43.504;3.714;2024-01-25T00:37:31;9.70;89.60
84807;DHT22;75042;43.504;3.714;2024-01-25T00:39:56;9.60;88.80
84807;DHT22;75042;43.504;3.714;2024-01-25T00:42:22;9.90;88.40
84807;DHT22;75042;43.504;3.714;2024-01-25T00:44:48;10.10;87.70
84807;DHT22;75042;43.504;3.714;2024-01-25T00:47:14;10.20;86.40
84807;DHT22;75042;43.504;3.714;2024-01-25T00:49:40;10.20;86.20
84807;DHT22;75042;43.504;3.714;2024-01-25T00:52:06;10.00;86.30
84807;DHT22;75042;43.504;3.714;2024-01-25T00:54:31;9.90;87.60
84807;DHT22;75042;43.504;3.714;2024-01-25T00:56:57;9.90;87.40
84807;DHT22;75042;43.504;3.714;2024-01-25T00:59:23;10.00;87.20
84807;DHT22;75042;43.504;3.714;2024-01-25T01:01:48;9.90;86.90
84807;DHT22;75042;43.504;3.714;2024-01-25T01:04:16;9.70;87.90
84807;DHT22;75042;43.504;3.714;2024-01-25T01:06:41;9.50;88.80
84807;DHT22;75042;43.504;3.714;2024-01-25T01:09:07;9.60;88.20
84807;DHT22;75042;43.504;3.714;2024-01-25T01:11:33;9.40;89.30
84807;DHT22;75042;43.504;3.714;2024-01-25T01:13:58;9.50;88.70
84807;DHT22;75042;43.504;3.714;2024-01-25T01:16:24;9.50;88.80
84807;DHT22;75042;43.504;3.714;2024-01-25T01:18:50;9.50;88.70
84807;DHT22;75042;43.504;3.714;2024-01-25T01:21:15;9.40;88.60
84807;DHT22;75042;43.504;3.714;2024-01-25T01:23:41;9.30;89.10
84807;DHT22;75042;43.504;3.714;2024-01-25T01:26:07;9.30;89.60
84807;DHT22;75042;43.504;3.714;2024-01-25T01:28:32;9.40;89.20
84807;DHT22;75042;43.504;3.714;2024-01-25T01:30:58;9.30;88.60
84807;DHT22;75042;43.504;3.714;2024-01-25T01:33:23;9.20;89.70
84807;DHT22;75042;43.504;3.714;2024-01-25T01:35:49;9.20;89.50
84807;DHT22;75042;43.504;3.714;2024-01-25T01:38:15;9.10;89.10
84807;DHT22;75042;43.504;3.714;2024-01-25T01:40:40;9.00;89.20
84807;DHT22;75042;43.504;3.714;2024-01-25T01:43:06;9.00;90.00
84807;DHT22;75042;43.504;3.714;2024-01-25T01:45:31;8.90;90.30
84807;DHT22;75042;43.504;3.714;2024-01-25T01:47:57;8.90;89.50
84807;DHT22;75042;43.504;3.714;2024-01-25T01:50:23;8.70;90.40
84807;DHT22;75042;43.504;3.714;2024-01-25T01:52:49;8.80;89.90
84807;DHT22;75042;43.504;3.714;2024-01-25T01:55:16;8.70;90.10
84807;DHT22;75042;43.504;3.714;2024-01-25T01:57:41;8.80;89.50
84807;DHT22;75042;43.504;3.714;2024-01-25T02:00:08;8.80;89.00
84807;DHT22;75042;43.504;3.714;2024-01-25T02:02:34;8.90;89.20
84807;DHT22;75042;43.504;3.714;2024-01-25T02:05:00;9.00;88.20
84807;DHT22;75042;43.504;3.714;2024-01-25T02:07:26;8.90;88.90
84807;DHT22;75042;43.504;3.714;2024-01-25T02:09:51;8.80;89.00
84807;DHT22;75042;43.504;3.714;2024-01-25T02:12:17;8.70;89.40
84807;DHT22;75042;43.504;3.714;2024-01-25T02:14:42;8.80;89.80
84807;DHT22;75042;43.504;3.714;2024-01-25T02:17:08;8.70;89.40
84807;DHT22;75042;43.504;3.714;2024-01-25T02:19:34;8.70;89.60
84807;DHT22;75042;43.504;3.714;2024-01-25T02:21:59;8.70;89.70
84807;DHT22;75042;43.504;3.714;2024-01-25T02:24:25;8.70;90.00
84807;DHT22;75042;43.504;3.714;2024-01-25T02:26:50;8.60;90.40
84807;DHT22;75042;43.504;3.714;2024-01-25T02:29:16;8.70;90.20
84807;DHT22;75042;43.504;3.714;2024-01-25T02:31:41;8.70;89.80
84807;DHT22;75042;43.504;3.714;2024-01-25T02:34:07;8.70;89.90
84807;DHT22;75042;43.504;3.714;2024-01-25T02:36:32;8.70;90.00
84807;DHT22;75042;43.504;3.714;2024-01-25T02:38:58;8.70;90.40
84807;DHT22;75042;43.504;3.714;2024-01-25T02:41:24;8.60;90.30
84807;DHT22;75042;43.504;3.714;2024-01-25T02:43:49;8.60;90.80
84807;DHT22;75042;43.504;3.714;2024-01-25T02:46:15;8.80;90.50
84807;DHT22;75042;43.504;3.714;2024-01-25T02:48:40;9.00;89.60
84807;DHT22;75042;43.504;3.714;2024-01-25T02:51:06;8.90;89.30
84807;DHT22;75042;43.504;3.714;2024-01-25T02:53:31;8.70;90.00
84807;DHT22;75042;43.504;3.714;2024-01-25T02:55:57;8.70;90.40
84807;DHT22;75042;43.504;3.714;2024-01-25T02:58:22;8.70;90.20
84807;DHT22;75042;43.504;3.714;2024-01-25T03:00:48;8.70;90.00
84807;DHT22;75042;43.504;3.714;2024-01-25T03:03:13;8.70;90.10
84807;DHT22;75042;43.504;3.714;2024-01-25T03:05:39;8.50;90.20
84807;DHT22;75042;43.504;3.714;2024-01-25T03:08:05;8.50;90.60
84807;DHT22;75042;43.504;3.714;2024-01-25T03:10:30;8.60;90.30
84807;DHT22;75042;43.504;3.714;2024-01-25T03:12:56;8.50;90.00
84807;DHT22;75042;43.504;3.714;2024-01-25T03:15:21;8.50;91.30
84807;DHT22;75042;43.504;3.714;2024-01-25T03:17:47;8.60;90.30
84807;DHT22;75042;43.504;3.714;2024-01-25T03:20:12;8.50;90.80
84807;DHT22;75042;43.504;3.714;2024-01-25T03:22:38;8.50;90.20
84807;DHT22;75042;43.504;3.714;2024-01-25T03:25:04;8.60;90.20
84807;DHT22;75042;43.504;3.714;2024-01-25T03:27:29;8.40;90.70
84807;DHT22;75042;43.504;3.714;2024-01-25T03:29:55;8.30;91.20
84807;DHT22;75042;43.504;3.714;2024-01-25T03:32:21;8.20;91.60
84807;DHT22;75042;43.504;3.714;2024-01-25T03:34:47;8.20;92.30
84807;DHT22;75042;43.504;3.714;2024-01-25T03:37:12;8.20;92.10
84807;DHT22;75042;43.504;3.714;2024-01-25T03:39:38;8.30;91.50
84807;DHT22;75042;43.504;3.714;2024-01-25T03:42:03;8.40;91.90
84807;DHT22;75042;43.504;3.714;2024-01-25T03:44:29;8.30;91.00
84807;DHT22;75042;43.504;3.714;2024-01-25T03:46:54;8.20;91.30
84807;DHT22;75042;43.504;3.714;2024-01-25T03:49:20;8.20;91.80
84807;DHT22;75042;43.504;3.714;2024-01-25T03:51:48;8.20;92.10
84807;DHT22;75042;43.504;3.714;2024-01-25T03:54:13;8.50;90.80
84807;DHT22;75042;43.504;3.714;2024-01-25T03:56:39;8.60;89.90
84807;DHT22;75042;43.504;3.714;2024-01-25T03:59:04;8.70;89.30
84807;DHT22;75042;43.504;3.714;2024-01-25T04:01:40;8.70;88.90
84807;DHT22;75042;43.504;3.714;2024-01-25T04:04:06;8.80;88.80
84807;DHT22;75042;43.504;3.714;2024-01-25T04:06:33;8.80;88.50
84807;DHT22;75042;43.504;3.714;2024-01-25T04:08:58;8.60;89.10
84807;DHT22;75042;43.504;3.714;2024-01-25T04:11:24;8.50;89.90
84807;DHT22;75042;43.504;3.714;2024-01-25T04:13:49;8.60;89.60
84807;DHT22;75042;43.504;3.714;2024-01-25T04:16:15;8.60;88.90
84807;DHT22;75042;43.504;3.714;2024-01-25T04:18:41;8.60;89.20
84807;DHT22;75042;43.504;3.714;2024-01-25T04:21:06;8.70;88.50
84807;DHT22;75042;43.504;3.714;2024-01-25T04:23:32;8.70;88.00
84807;DHT22;75042;43.504;3.714;2024-01-25T04:25:57;8.70;88.10
84807;DHT22;75042;43.504;3.714;2024-01-25T04:28:23;8.60;88.60
84807;DHT22;75042;43.504;3.714;2024-01-25T04:30:48;8.70;88.30
84807;DHT22;75042;43.504;3.714;2024-01-25T04:33:14;8.80;88.10
84807;DHT22;75042;43.504;3.714;2024-01-25T04:35:39;8.80;88.10
84807;DHT22;75042;43.504;3.714;2024-01-25T04:38:05;8.80;88.40
84807;DHT22;75042;43.504;3.714;2024-01-25T04:40:30;8.80;88.40
84807;DHT22;75042;43.504;3.714;2024-01-25T04:42:56;8.80;87.90
84807;DHT22;75042;43.504;3.714;2024-01-25T04:45:21;8.90;87.60
84807;DHT22;75042;43.504;3.714;2024-01-25T04:47:47;8.90;87.60
84807;DHT22;75042;43.504;3.714;2024-01-25T04:50:13;9.00;87.10
84807;DHT22;75042;43.504;3.714;2024-01-25T04:52:38;8.90;87.30
84807;DHT22;75042;43.504;3.714;2024-01-25T04:55:04;8.90;87.40
84807;DHT22;75042;43.504;3.714;2024-01-25T04:57:29;8.90;87.30
84807;DHT22;75042;43.504;3.714;2024-01-25T04:59:55;8.90;87.50
84807;DHT22;75042;43.504;3.714;2024-01-25T05:02:20;9.00;86.80
84807;DHT22;75042;43.504;3.714;2024-01-25T05:04:46;8.90;86.80
84807;DHT22;75042;43.504;3.714;2024-01-25T05:07:11;8.80;87.30
84807;DHT22;75042;43.504;3.714;2024-01-25T05:09:37;8.80;87.60
84807;DHT22;75042;43.504;3.714;2024-01-25T05:12:02;8.80;87.00
84807;DHT22;75042;43.504;3.714;2024-01-25T05:14:28;8.70;88.20
84807;DHT22;75042;43.504;3.714;2024-01-25T05:16:54;8.80;87.80
84807;DHT22;75042;43.504;3.714;2024-01-25T05:19:19;8.70;87.80
84807;DHT22;75042;43.504;3.714;2024-01-25T05:21:45;8.70;87.70
84807;DHT22;75042;43.504;3.714;2024-01-25T05:24:10;8.60;88.10
84807;DHT22;75042;43.504;3.714;2024-01-25T05:26:36;8.50;88.50
84807;DHT22;75042;43.504;3.714;2024-01-25T05:29:01;8.60;88.40
84807;DHT22;75042;43.504;3.714;2024-01-25T05:31:27;8.50;88.60
84807;DHT22;75042;43.504;3.714;2024-01-25T05:33:53;8.60;87.70
84807;DHT22;75042;43.504;3.714;2024-01-25T05:36:18;9.00;86.40
84807;DHT22;75042;43.504;3.714;2024-01-25T05:38:45;8.90;85.80
84807;DHT22;75042;43.504;3.714;2024-01-25T05:41:10;8.90;85.70
84807;DHT22;75042;43.504;3.714;2024-01-25T05:43:37;8.80;86.60
84807;DHT22;75042;43.504;3.714;2024-01-25T05:46:02;9.10;84.00
84807;DHT22;75042;43.504;3.714;2024-01-25T05:48:28;8.90;84.90
84807;DHT22;75042;43.504;3.714;2024-01-25T05:50:53;8.80;85.30
84807;DHT22;75042;43.504;3.714;2024-01-25T05:53:19;8.70;85.80
84807;DHT22;75042;43.504;3.714;2024-01-25T05:55:45;8.60;86.00
84807;DHT22;75042;43.504;3.714;2024-01-25T05:58:10;8.60;87.20
84807;DHT22;75042;43.504;3.714;2024-01-25T06:00:36;8.60;86.20
84807;DHT22;75042;43.504;3.714;2024-01-25T06:03:02;8.50;87.40
84807;DHT22;75042;43.504;3.714;2024-01-25T06:05:27;8.40;88.20
84807;DHT22;75042;43.504;3.714;2024-01-25T06:07:53;8.50;88.00
84807;DHT22;75042;43.504;3.714;2024-01-25T06:10:18;8.30;87.60
84807;DHT22;75042;43.504;3.714;2024-01-25T06:12:44;8.30;88.40
84807;DHT22;75042;43.504;3.714;2024-01-25T06:15:09;8.10;88.60
84807;DHT22;75042;43.504;3.714;2024-01-25T06:17:35;7.90;89.10
84807;DHT22;75042;43.504;3.714;2024-01-25T06:20:01;7.80;90.60
84807;DHT22;75042;43.504;3.714;2024-01-25T06:22:26;7.70;91.10
84807;DHT22;75042;43.504;3.714;2024-01-25T06:24:52;7.80;90.90
84807;DHT22;75042;43.504;3.714;2024-01-25T06:27:18;7.80;90.10
84807;DHT22;75042;43.504;3.714;2024-01-25T06:29:43;7.90;89.90
84807;DHT22;75042;43.504;3.714;2024-01-25T06:32:09;7.70;89.80
84807;DHT22;75042;43.504;3.714;2024-01-25T06:34:35;7.60;90.40
84807;DHT22;75042;43.504;3.714;2024-01-25T06:37:00;7.40;91.00
84807;DHT22;75042;43.504;3.714;2024-01-25T06:39:26;7.50;90.50
84807;DHT22;75042;43.504;3.714;2024-01-25T06:41:51;7.30;90.10
84807;DHT22;75042;43.504;3.714;2024-01-25T06:44:17;7.20;90.90
84807;DHT22;75042;43.504;3.714;2024-01-25T06:46:42;7.00;91.60
84807;DHT22;75042;43.504;3.714;2024-01-25T06:49:08;7.00;92.90
84807;DHT22;75042;43.504;3.714;2024-01-25T06:51:33;6.90;92.70
84807;DHT22;75042;43.504;3.714;2024-01-25T06:53:59;6.80;92.60
84807;DHT22;75042;43.504;3.714;2024-01-25T06:56:25;6.90;92.90
84807;DHT22;75042;43.504;3.714;2024-01-25T06:58:50;6.80;91.90
84807;DHT22;75042;43.504;3.714;2024-01-25T07:01:22;6.80;91.90
84807;DHT22;75042;43.504;3.714;2024-01-25T07:03:48;6.80;92.10
84807;DHT22;75042;43.504;3.714;2024-01-25T07:06:16;7.10;91.00
84807;DHT22;75042;43.504;3.714;2024-01-25T07:08:42;7.40;88.80
84807;DHT22;75042;43.504;3.714;2024-01-25T07:11:08;7.30;88.50
84807;DHT22;75042;43.504;3.714;2024-01-25T07:13:33;7.40;88.20
84807;DHT22;75042;43.504;3.714;2024-01-25T07:15:59;7.30;88.40
84807;DHT22;75042;43.504;3.714;2024-01-25T07:18:27;7.30;88.90
84807;DHT22;75042;43.504;3.714;2024-01-25T07:20:52;7.30;89.00
84807;DHT22;75042;43.504;3.714;2024-01-25T07:23:18;7.30;89.10
84807;DHT22;75042;43.504;3.714;2024-01-25T07:25:43;7.40;88.40
84807;DHT22;75042;43.504;3.714;2024-01-25T07:28:09;7.50;87.70
84807;DHT22;75042;43.504;3.714;2024-01-25T07:30:35;7.50;87.40
84807;DHT22;75042;43.504;3.714;2024-01-25T07:33:00;7.40;87.80
84807;DHT22;75042;43.504;3.714;2024-01-25T07:35:26;7.30;87.90
84807;DHT22;75042;43.504;3.714;2024-01-25T07:37:52;7.10;89.00
84807;DHT22;75042;43.504;3.714;2024-01-25T07:40:17;7.20;89.70
84807;DHT22;75042;43.504;3.714;2024-01-25T07:42:43;7.20;88.90
84807;DHT22;75042;43.504;3.714;2024-01-25T07:45:09;7.20;89.30
84807;DHT22;75042;43.504;3.714;2024-01-25T07:47:35;7.20;88.90
84807;DHT22;75042;43.504;3.714;2024-01-25T07:50:00;7.30;88.60
84807;DHT22;75042;43.504;3.714;2024-01-25T07:52:26;7.40;87.80
84807;DHT22;75042;43.504;3.714;2024-01-25T07:54:51;7.30;88.20
84807;DHT22;75042;43.504;3.714;2024-01-25T07:57:18;7.10;88.70
84807;DHT22;75042;43.504;3.714;2024-01-25T07:59:44;7.10;88.80
84807;DHT22;75042;43.504;3.714;2024-01-25T08:02:10;7.00;89.30
84807;DHT22;75042;43.504;3.714;2024-01-25T08:04:35;7.00;89.00
84807;DHT22;75042;43.504;3.714;2024-01-25T08:07:01;7.00;89.30
84807;DHT22;75042;43.504;3.714;2024-01-25T08:09:27;7.00;89.50
84807;DHT22;75042;43.504;3.714;2024-01-25T08:11:53;7.10;90.20
84807;DHT22;75042;43.504;3.714;2024-01-25T08:14:18;7.20;89.70
84807;DHT22;75042;43.504;3.714;2024-01-25T08:16:44;7.20;89.70
84807;DHT22;75042;43.504;3.714;2024-01-25T08:19:10;7.20;89.80
84807;DHT22;75042;43.504;3.714;2024-01-25T08:21:36;7.40;90.10
84807;DHT22;75042;43.504;3.714;2024-01-25T08:24:02;7.60;89.30
84807;DHT22;75042;43.504;3.714;2024-01-25T08:26:27;7.70;89.50
84807;DHT22;75042;43.504;3.714;2024-01-25T08:28:53;8.00;88.30
84807;DHT22;75042;43.504;3.714;2024-01-25T08:31:18;8.00;88.30
84807;DHT22;75042;43.504;3.714;2024-01-25T08:33:44;8.00;88.50
84807;DHT22;75042;43.504;3.714;2024-01-25T08:36:19;8.00;88.20
84807;DHT22;75042;43.504;3.714;2024-01-25T08:38:44;8.10;88.70
84807;DHT22;75042;43.504;3.714;2024-01-25T08:41:10;8.20;88.90
84807;DHT22;75042;43.504;3.714;2024-01-25T08:43:36;8.40;89.20
84807;DHT22;75042;43.504;3.714;2024-01-25T08:46:02;8.40;89.00
84807;DHT22;75042;43.504;3.714;2024-01-25T08:48:28;8.60;88.70
84807;DHT22;75042;43.504;3.714;2024-01-25T08:50:54;8.90;87.90
84807;DHT22;75042;43.504;3.714;2024-01-25T08:53:20;9.10;87.30
84807;DHT22;75042;43.504;3.714;2024-01-25T08:55:48;9.50;87.40
84807;DHT22;75042;43.504;3.714;2024-01-25T08:58:13;10.10;85.90
84807;DHT22;75042;43.504;3.714;2024-01-25T09:00:39;11.00;81.40
84807;DHT22;75042;43.504;3.714;2024-01-25T09:03:05;11.70;77.00
84807;DHT22;75042;43.504;3.714;2024-01-25T09:05:33;12.40;73.80
84807;DHT22;75042;43.504;3.714;2024-01-25T09:08:03;13.20;67.70
84807;DHT22;75042;43.504;3.714;2024-01-25T09:10:29;13.90;66.00
84807;DHT22;75042;43.504;3.714;2024-01-25T09:12:54;15.00;60.70
84807;DHT22;75042;43.504;3.714;2024-01-25T09:15:20;16.40;56.70
84807;DHT22;75042;43.504;3.714;2024-01-25T09:17:45;16.60;54.00
84807;DHT22;75042;43.504;3.714;2024-01-25T09:20:11;17.50;52.10
84807;DHT22;75042;43.504;3.714;2024-01-25T09:22:36;18.10;49.70
84807;DHT22;75042;43.504;3.714;2024-01-25T09:25:03;17.60;50.00
84807;DHT22;75042;43.504;3.714;2024-01-25T09:27:28;18.10;49.30
84807;DHT22;75042;43.504;3.714;2024-01-25T09:29:54;19.10;47.30
84807;DHT22;75042;43.504;3.714;2024-01-25T09:32:20;19.10;47.10
84807;DHT22;75042;43.504;3.714;2024-01-25T09:34:46;19.50;44.50
84807;DHT22;75042;43.504;3.714;2024-01-25T09:37:11;19.30;46.00
84807;DHT22;75042;43.504;3.714;2024-01-25T09:39:37;19.50;44.10
84807;DHT22;75042;43.504;3.714;2024-01-25T09:42:03;19.40;43.80
84807;DHT22;75042;43.504;3.714;2024-01-25T09:44:29;19.70;42.20
84807;DHT22;75042;43.504;3.714;2024-01-25T09:46:55;21.40;39.70
84807;DHT22;75042;43.504;3.714;2024-01-25T09:49:21;21.60;38.40
84807;DHT22;75042;43.504;3.714;2024-01-25T09:51:47;21.20;38.60
84807;DHT22;75042;43.504;3.714;2024-01-25T09:54:13;21.00;39.30
84807;DHT22;75042;43.504;3.714;2024-01-25T09:56:39;20.90;38.80
84807;DHT22;75042;43.504;3.714;2024-01-25T09:59:06;20.50;41.00
84807;DHT22;75042;43.504;3.714;2024-01-25T10:01:32;20.90;40.30
84807;DHT22;75042;43.504;3.714;2024-01-25T10:03:59;21.40;41.10
84807;DHT22;75042;43.504;3.714;2024-01-25T10:06:25;21.40;39.50
84807;DHT22;75042;43.504;3.714;2024-01-25T10:08:51;21.90;38.30
84807;DHT22;75042;43.504;3.714;2024-01-25T10:11:16;21.70;38.50
84807;DHT22;75042;43.504;3.714;2024-01-25T10:13:42;21.60;37.60
84807;DHT22;75042;43.504;3.714;2024-01-25T10:16:12;22.90;36.70
84807;DHT22;75042;43.504;3.714;2024-01-25T10:18:38;23.90;33.50
84807;DHT22;75042;43.504;3.714;2024-01-25T10:21:03;24.10;33.60
84807;DHT22;75042;43.504;3.714;2024-01-25T10:23:29;23.70;35.10
84807;DHT22;75042;43.504;3.714;2024-01-25T10:25:55;24.80;32.90
84807;DHT22;75042;43.504;3.714;2024-01-25T10:28:23;24.60;33.00
84807;DHT22;75042;43.504;3.714;2024-01-25T10:30:49;23.70;32.40
84807;DHT22;75042;43.504;3.714;2024-01-25T10:33:15;24.20;33.00
84807;DHT22;75042;43.504;3.714;2024-01-25T10:35:41;23.40;31.50
84807;DHT22;75042;43.504;3.714;2024-01-25T10:38:10;23.70;34.00
84807;DHT22;75042;43.504;3.714;2024-01-25T10:40:37;23.60;32.30
84807;DHT22;75042;43.504;3.714;2024-01-25T10:43:04;23.80;33.80
84807;DHT22;75042;43.504;3.714;2024-01-25T10:45:30;25.00;30.40
84807;DHT22;75042;43.504;3.714;2024-01-25T10:47:56;25.50;30.80
84807;DHT22;75042;43.504;3.714;2024-01-25T10:50:21;25.30;29.80
84807;DHT22;75042;43.504;3.714;2024-01-25T10:52:47;24.10;31.50
84807;DHT22;75042;43.504;3.714;2024-01-25T10:55:13;25.50;29.70
84807;DHT22;75042;43.504;3.714;2024-01-25T10:57:44;23.90;30.00
84807;DHT22;75042;43.504;3.714;2024-01-25T11:00:13;24.10;30.90
84807;DHT22;75042;43.504;3.714;2024-01-25T11:02:42;24.00;32.60
84807;DHT22;75042;43.504;3.714;2024-01-25T11:05:12;24.10;31.30
84807;DHT22;75042;43.504;3.714;2024-01-25T11:07:44;23.10;31.30
84807;DHT22;75042;43.504;3.714;2024-01-25T11:10:11;23.10;33.10
84807;DHT22;75042;43.504;3.714;2024-01-25T11:12:46;23.10;31.40
84807;DHT22;75042;43.504;3.714;2024-01-25T11:15:16;23.40;32.60
84807;DHT22;75042;43.504;3.714;2024-01-25T11:17:42;24.10;31.30
84807;DHT22;75042;43.504;3.714;2024-01-25T11:20:15;24.60;30.60
84807;DHT22;75042;43.504;3.714;2024-01-25T11:22:44;24.30;28.70
84807;DHT22;75042;43.504;3.714;2024-01-25T11:25:13;24.10;31.20
84807;DHT22;75042;43.504;3.714;2024-01-25T11:27:42;25.40;30.50
84807;DHT22;75042;43.504;3.714;2024-01-25T11:30:08;26.50;26.90
84807;DHT22;75042;43.504;3.714;2024-01-25T11:32:34;24.60;30.20
84807;DHT22;75042;43.504;3.714;2024-01-25T11:34:59;25.60;29.80
84807;DHT22;75042;43.504;3.714;2024-01-25T11:37:25;26.30;28.40
84807;DHT22;75042;43.504;3.714;2024-01-25T11:39:51;26.40;27.90
84807;DHT22;75042;43.504;3.714;2024-01-25T11:42:16;24.70;28.80
84807;DHT22;75042;43.504;3.714;2024-01-25T11:44:42;25.20;28.20
84807;DHT22;75042;43.504;3.714;2024-01-25T11:47:08;25.10;29.00
84807;DHT22;75042;43.504;3.714;2024-01-25T11:49:34;25.40;29.20
84807;DHT22;75042;43.504;3.714;2024-01-25T11:52:00;26.20;28.20
84807;DHT22;75042;43.504;3.714;2024-01-25T11:54:27;26.20;30.20
84807;DHT22;75042;43.504;3.714;2024-01-25T11:56:53;26.40;30.10
84807;DHT22;75042;43.504;3.714;2024-01-25T11:59:18;26.10;31.40
84807;DHT22;75042;43.504;3.714;2024-01-25T12:01:44;25.80;31.00
84807;DHT22;75042;43.504;3.714;2024-01-25T12:04:10;24.40;33.00
84807;DHT22;75042;43.504;3.714;2024-01-25T12:06:35;24.00;34.70
84807;DHT22;75042;43.504;3.714;2024-01-25T12:09:08;23.40;35.00
84807;DHT22;75042;43.504;3.714;2024-01-25T12:11:34;22.90;35.80
84807;DHT22;75042;43.504;3.714;2024-01-25T12:13:59;22.70;36.80
84807;DHT22;75042;43.504;3.714;2024-01-25T12:16:25;22.30;36.90
84807;DHT22;75042;43.504;3.714;2024-01-25T12:18:50;22.20;38.40
84807;DHT22;75042;43.504;3.714;2024-01-25T12:21:16;21.80;38.60
84807;DHT22;75042;43.504;3.714;2024-01-25T12:23:42;21.90;38.50
84807;DHT22;75042;43.504;3.714;2024-01-25T12:26:10;21.70;37.70
84807;DHT22;75042;43.504;3.714;2024-01-25T12:28:36;21.20;38.50
84807;DHT22;75042;43.504;3.714;2024-01-25T12:31:03;21.20;39.40
84807;DHT22;75042;43.504;3.714;2024-01-25T12:33:29;21.30;40.20
84807;DHT22;75042;43.504;3.714;2024-01-25T12:35:54;21.30;40.10
84807;DHT22;75042;43.504;3.714;2024-01-25T12:38:23;21.20;40.20
84807;DHT22;75042;43.504;3.714;2024-01-25T12:40:49;21.00;39.50
84807;DHT22;75042;43.504;3.714;2024-01-25T12:43:15;21.00;41.10
84807;DHT22;75042;43.504;3.714;2024-01-25T12:45:41;21.00;39.80
84807;DHT22;75042;43.504;3.714;2024-01-25T12:48:07;20.90;40.40
84807;DHT22;75042;43.504;3.714;2024-01-25T12:50:33;20.90;40.30
84807;DHT22;75042;43.504;3.714;2024-01-25T12:52:59;20.80;40.90
84807;DHT22;75042;43.504;3.714;2024-01-25T12:55:25;20.70;41.20
84807;DHT22;75042;43.504;3.714;2024-01-25T12:57:51;20.70;40.40
84807;DHT22;75042;43.504;3.714;2024-01-25T13:00:16;20.80;41.10
84807;DHT22;75042;43.504;3.714;2024-01-25T13:02:42;20.50;40.60
84807;DHT22;75042;43.504;3.714;2024-01-25T13:05:07;20.50;41.40
84807;DHT22;75042;43.504;3.714;2024-01-25T13:07:33;20.60;41.50
84807;DHT22;75042;43.504;3.714;2024-01-25T13:09:59;20.20;40.50
84807;DHT22;75042;43.504;3.714;2024-01-25T13:12:24;20.20;42.00
84807;DHT22;75042;43.504;3.714;2024-01-25T13:14:50;20.30;41.00
84807;DHT22;75042;43.504;3.714;2024-01-25T13:17:15;20.30;41.40
84807;DHT22;75042;43.504;3.714;2024-01-25T13:19:41;20.30;41.00
84807;DHT22;75042;43.504;3.714;2024-01-25T13:22:06;20.30;42.20
84807;DHT22;75042;43.504;3.714;2024-01-25T13:24:32;20.20;41.70
84807;DHT22;75042;43.504;3.714;2024-01-25T13:26:57;20.00;42.10
84807;DHT22;75042;43.504;3.714;2024-01-25T13:29:23;20.00;42.10
84807;DHT22;75042;43.504;3.714;2024-01-25T13:31:49;20.00;42.30
84807;DHT22;75042;43.504;3.714;2024-01-25T13:34:14;19.90;42.90
84807;DHT22;75042;43.504;3.714;2024-01-25T13:36:40;19.70;42.30
84807;DHT22;75042;43.504;3.714;2024-01-25T13:39:05;19.50;43.80
84807;DHT22;75042;43.504;3.714;2024-01-25T13:41:31;19.50;44.00
84807;DHT22;75042;43.504;3.714;2024-01-25T13:43:56;19.60;44.40
84807;DHT22;75042;43.504;3.714;2024-01-25T13:46:22;19.30;43.90
84807;DHT22;75042;43.504;3.714;2024-01-25T13:48:47;19.30;44.70
84807;DHT22;75042;43.504;3.714;2024-01-25T13:51:13;19.20;44.60
84807;DHT22;75042;43.504;3.714;2024-01-25T13:53:39;19.10;44.90
84807;DHT22;75042;43.504;3.714;2024-01-25T13:56:04;18.80;45.50
84807;DHT22;75042;43.504;3.714;2024-01-25T13:58:30;18.60;45.70
84807;DHT22;75042;43.504;3.714;2024-01-25T14:00:55;18.60;46.80
84807;DHT22;75042;43.504;3.714;2024-01-25T14:03:21;18.70;46.40
84807;DHT22;75042;43.504;3.714;2024-01-25T14:05:46;18.80;46.70
84807;DHT22;75042;43.504;3.714;2024-01-25T14:08:12;18.70;46.80
84807;DHT22;75042;43.504;3.714;2024-01-25T14:10:37;18.60;46.50
84807;DHT22;75042;43.504;3.714;2024-01-25T14:13:03;18.60;46.80
84807;DHT22;75042;43.504;3.714;2024-01-25T14:15:29;18.50;47.10
84807;DHT22;75042;43.504;3.714;2024-01-25T14:17:54;18.50;47.40
84807;DHT22;75042;43.504;3.714;2024-01-25T14:20:20;18.50;47.40
84807;DHT22;75042;43.504;3.714;2024-01-25T14:22:45;18.50;46.40
84807;DHT22;75042;43.504;3.714;2024-01-25T14:25:11;18.50;47.50
84807;DHT22;75042;43.504;3.714;2024-01-25T14:27:37;18.40;47.20
84807;DHT22;75042;43.504;3.714;2024-01-25T14:30:02;18.30;47.90
84807;DHT22;75042;43.504;3.714;2024-01-25T14:32:32;18.20;46.90
84807;DHT22;75042;43.504;3.714;2024-01-25T14:34:58;18.20;46.40
84807;DHT22;75042;43.504;3.714;2024-01-25T14:37:23;18.10;46.70
84807;DHT22;75042;43.504;3.714;2024-01-25T14:39:49;18.10;46.90
84807;DHT22;75042;43.504;3.714;2024-01-25T14:42:14;18.10;48.30
84807;DHT22;75042;43.504;3.714;2024-01-25T14:44:42;18.00;48.50
84807;DHT22;75042;43.504;3.714;2024-01-25T14:47:08;18.00;48.30
84807;DHT22;75042;43.504;3.714;2024-01-25T14:49:33;17.90;48.20
84807;DHT22;75042;43.504;3.714;2024-01-25T14:52:00;17.90;48.90
84807;DHT22;75042;43.504;3.714;2024-01-25T14:54:25;17.80;49.40
84807;DHT22;75042;43.504;3.714;2024-01-25T14:56:51;17.70;49.90
84807;DHT22;75042;43.504;3.714;2024-01-25T14:59:17;17.70;50.20
84807;DHT22;75042;43.504;3.714;2024-01-25T15:01:43;17.60;50.30
84807;DHT22;75042;43.504;3.714;2024-01-25T15:04:08;17.50;50.70
84807;DHT22;75042;43.504;3.714;2024-01-25T15:06:34;17.40;51.20
84807;DHT22;75042;43.504;3.714;2024-01-25T15:08:59;17.40;51.60
84807;DHT22;75042;43.504;3.714;2024-01-25T15:11:25;17.30;51.70
84807;DHT22;75042;43.504;3.714;2024-01-25T15:13:50;17.30;51.80
84807;DHT22;75042;43.504;3.714;2024-01-25T15:16:16;17.20;52.00
84807;DHT22;75042;43.504;3.714;2024-01-25T15:18:42;17.10;52.00
84807;DHT22;75042;43.504;3.714;2024-01-25T15:21:07;17.10;51.70
84807;DHT22;75042;43.504;3.714;2024-01-25T15:23:33;17.00;51.60
84807;DHT22;75042;43.504;3.714;2024-01-25T15:25:58;17.00;51.70
84807;DHT22;75042;43.504;3.714;2024-01-25T15:28:24;17.00;52.30
84807;DHT22;75042;43.504;3.714;2024-01-25T15:30:49;16.90;52.50